This is the latest recevied weather packets stored in our database for station/object BMCB-35. If no packets are shown the sender has not sent any weather packets the latest 10 day(s).
| Time | Temp. | Humidity | Pressure | Rain* | Wind** | Luminosity | Snow |
|---|---|---|---|---|---|---|---|
| 1777294845 | 19.44° C | 33% | 1020.7 hPa | 0 mm | - | 564 W/m² | - |
| 1777294246 | 19.44° C | 33% | 1020.7 hPa | 0 mm | - | 564 W/m² | - |
| 1777293037 | 19.44° C | 34% | 1020.9 hPa | 0 mm | - | 504 W/m² | - |
| 1777292439 | 18.89° C | 34% | 1021 hPa | 0 mm | - | 556 W/m² | - |
| 1777290023 | 18.33° C | 35% | 1021.4 hPa | 0 mm | - | 573 W/m² | - |
| 1777288211 | 18.33° C | 35% | 1021.6 hPa | 0 mm | - | 657 W/m² | - |
| 1777285235 | 17.22° C | 37% | 1022.3 hPa | 0 mm | - | 611 W/m² | - |
| 1777284011 | 16.67° C | 38% | 1022.4 hPa | 0 mm | - | 565 W/m² | - |
| 1777283413 | 16.11° C | 37% | 1022.4 hPa | 0 mm | - | 524 W/m² | - |
| 1777282825 | 16.11° C | 37% | 1022.4 hPa | 0 mm | - | 524 W/m² | - |
| 1777282213 | 16.11° C | 38% | 1022.4 hPa | 0 mm | - | 593 W/m² | - |
| 1777279224 | 14.44° C | 43% | 1022.9 hPa | 0 mm | - | 507 W/m² | - |
| 1777279219 | 13.89° C | 44% | 1023 hPa | 0 mm | - | 528 W/m² | - |
| 1777277414 | 13.33° C | 46% | 1023.1 hPa | 0 mm | - | 484 W/m² | - |
| 1777276834 | 12.78° C | 49% | 1023.2 hPa | 0 mm | - | 413 W/m² | - |
| 1777275611 | 12.22° C | 50% | 1023.2 hPa | 0 mm | - | 395 W/m² | - |
| 1777275038 | 12.22° C | 50% | 1023.2 hPa | 0 mm | - | 395 W/m² | - |
| 1777272037 | 10.56° C | 53% | 1023.6 hPa | 0 mm | - | 243 W/m² | - |
| 1777270811 | 9.44° C | 55% | 1023.5 hPa | 0 mm | - | 160 W/m² | - |
| 1777267840 | 8.33° C | 60% | 1023.4 hPa | 0 mm | - | 36 W/m² | - |
| 1777265416 | 7.22° C | 64% | 1023.3 hPa | 0 mm | - | 10 W/m² | - |
| 1777263641 | 7.78° C | 60% | 1023.1 hPa | 0 mm | - | 0 W/m² | - |
| 1777263037 | 7.78° C | 61% | 1023.1 hPa | 0 mm | - | 0 W/m² | - |
| 1777263032 | 7.78° C | 62% | 1023.2 hPa | 0 mm | - | 0 W/m² | - |
| 1777261824 | 7.78° C | 62% | 1023.2 hPa | 0 mm | - | 0 W/m² | - |
* Rain latest hour (hover to see other rain measurements)
** Current wind speed in m/s (hover to see current wind gust speed)